createdAt,value
2018-02-14T00:00:37.665Z,1008.47
2018-02-14T00:02:30.628Z,1008.47
2018-02-14T00:03:30.621Z,1008.48
2018-02-14T00:05:23.560Z,1008.48
2018-02-14T00:06:23.574Z,1008.50
2018-02-14T00:08:16.536Z,1008.47
2018-02-14T00:09:16.528Z,1008.48
2018-02-14T00:11:09.471Z,1008.51
2018-02-14T00:12:09.482Z,1008.51
2018-02-14T00:14:02.441Z,1008.55
2018-02-14T00:15:02.435Z,1008.57
2018-02-14T00:16:55.378Z,1008.59
2018-02-14T00:17:55.392Z,1008.58
2018-02-14T00:19:48.373Z,1008.60
2018-02-14T00:20:48.368Z,1008.62
2018-02-14T00:22:41.307Z,1008.59
2018-02-14T00:23:41.300Z,1008.60
2018-02-14T00:25:34.240Z,1008.61
2018-02-14T00:26:34.253Z,1008.60
2018-02-14T00:28:27.213Z,1008.59
2018-02-14T00:29:27.209Z,1008.58
2018-02-14T00:31:20.149Z,1008.61
2018-02-14T00:32:20.164Z,1008.64
2018-02-14T00:34:13.121Z,1008.65
2018-02-14T00:35:13.115Z,1008.69
2018-02-14T00:37:06.056Z,1008.70
2018-02-14T00:38:06.072Z,1008.68
2018-02-14T00:39:59.028Z,1008.74
2018-02-14T00:40:59.022Z,1008.76
2018-02-14T00:42:51.988Z,1008.72
2018-02-14T00:43:51.979Z,1008.74
2018-02-14T00:45:44.941Z,1008.74
2018-02-14T00:46:44.930Z,1008.77
2018-02-14T00:48:37.901Z,1008.76
2018-02-14T00:49:37.886Z,1008.75
2018-02-14T00:51:30.828Z,1008.74
2018-02-14T00:52:30.839Z,1008.73
2018-02-14T00:54:23.800Z,1008.75
2018-02-14T00:55:23.794Z,1008.75
2018-02-14T00:57:16.735Z,1008.78
2018-02-14T00:58:16.747Z,1008.76
2018-02-14T01:00:09.710Z,1008.76
2018-02-14T01:01:09.701Z,1008.82
2018-02-14T01:03:02.678Z,1008.82
2018-02-14T01:04:02.673Z,1008.82
2018-02-14T01:05:55.596Z,1008.87
2018-02-14T01:06:55.609Z,1008.85
2018-02-14T01:08:48.589Z,1008.86
2018-02-14T01:09:48.563Z,1008.86
2018-02-14T01:11:41.506Z,1008.88
2018-02-14T01:12:41.518Z,1008.89
2018-02-14T01:14:34.478Z,1008.90
2018-02-14T01:15:34.472Z,1008.90
2018-02-14T01:17:27.415Z,1008.93
2018-02-14T01:18:27.426Z,1008.93
2018-02-14T01:20:20.390Z,1008.93
2018-02-14T01:21:20.380Z,1008.91
2018-02-14T01:23:13.344Z,1008.92
2018-02-14T01:24:13.334Z,1008.93
2018-02-14T01:26:06.276Z,1008.92
2018-02-14T01:27:06.291Z,1008.93
2018-02-14T01:28:59.250Z,1008.91
2018-02-14T01:29:59.243Z,1008.91
2018-02-14T01:31:52.187Z,1008.93
2018-02-14T01:32:52.199Z,1008.92
2018-02-14T01:34:45.157Z,1008.94
2018-02-14T01:35:45.151Z,1008.96
2018-02-14T01:37:38.115Z,1008.92
2018-02-14T01:38:38.106Z,1008.94
2018-02-14T01:40:31.069Z,1008.99
2018-02-14T01:41:31.075Z,1008.97
2018-02-14T01:43:24.022Z,1009.02
2018-02-14T01:44:24.015Z,1008.99
2018-02-14T01:46:16.958Z,1009.02
2018-02-14T01:47:16.969Z,1009.03
2018-02-14T01:49:09.932Z,1009.04
2018-02-14T01:50:09.923Z,1008.99
2018-02-14T01:52:02.869Z,1009.00
2018-02-14T01:53:02.878Z,1009.04
2018-02-14T01:54:55.840Z,1009.01
2018-02-14T01:55:55.831Z,1009.04
2018-02-14T01:57:48.774Z,1009.04
2018-02-14T01:58:48.783Z,1009.02
2018-02-14T02:00:41.750Z,1009.03
2018-02-14T02:01:41.740Z,1009.01
2018-02-14T02:03:34.701Z,1008.99
2018-02-14T02:04:34.692Z,1008.99
2018-02-14T02:06:27.636Z,1009.02
2018-02-14T02:07:27.647Z,1009.01
2018-02-14T02:09:20.611Z,1009.03
2018-02-14T02:10:20.600Z,1009.00
2018-02-14T02:12:13.545Z,1009.00
2018-02-14T02:13:13.557Z,1008.99
2018-02-14T02:15:06.530Z,1009.08
2018-02-14T02:16:06.510Z,1009.06
2018-02-14T02:17:59.450Z,1009.11
2018-02-14T02:18:59.464Z,1009.09
2018-02-14T02:20:52.427Z,1009.12
2018-02-14T02:21:52.418Z,1009.11
2018-02-14T02:23:45.384Z,1009.11
2018-02-14T02:24:45.373Z,1009.14
2018-02-14T02:26:38.314Z,1009.10
2018-02-14T02:27:38.327Z,1009.12
2018-02-14T02:29:31.288Z,1009.13
2018-02-14T02:30:31.279Z,1009.10
2018-02-14T02:32:24.229Z,1009.07
2018-02-14T02:33:24.240Z,1009.09
2018-02-14T02:35:17.199Z,1009.09
2018-02-14T02:36:17.197Z,1009.09
2018-02-14T02:38:10.136Z,1009.10
2018-02-14T02:39:10.154Z,1009.12
2018-02-14T02:41:03.108Z,1009.11
2018-02-14T02:42:03.096Z,1009.11
2018-02-14T02:43:56.063Z,1009.13
2018-02-14T02:44:56.051Z,1009.15
2018-02-14T02:46:48.993Z,1009.16
2018-02-14T02:47:49.008Z,1009.14
2018-02-14T02:49:41.968Z,1009.19
2018-02-14T02:50:41.958Z,1009.16
2018-02-14T02:52:34.902Z,1009.18
2018-02-14T02:53:34.914Z,1009.21
2018-02-14T02:55:27.898Z,1009.22
2018-02-14T02:56:27.869Z,1009.21
2018-02-14T02:58:20.813Z,1009.20
2018-02-14T02:59:20.822Z,1009.22
2018-02-14T03:01:13.785Z,1009.19
2018-02-14T03:02:13.774Z,1009.20
2018-02-14T03:04:06.743Z,1009.22
2018-02-14T03:05:06.730Z,1009.24
2018-02-14T03:06:59.676Z,1009.26
2018-02-14T03:07:59.684Z,1009.24
2018-02-14T03:09:52.647Z,1009.24
2018-02-14T03:10:52.639Z,1009.25
2018-02-14T03:12:45.586Z,1009.26
2018-02-14T03:13:45.593Z,1009.30
2018-02-14T03:15:38.555Z,1009.31
2018-02-14T03:16:38.551Z,1009.28
2018-02-14T03:18:31.490Z,1009.33
2018-02-14T03:19:31.502Z,1009.29
2018-02-14T03:21:25.514Z,1009.32
2018-02-14T03:22:25.479Z,1009.34
2018-02-14T03:24:18.441Z,1009.37
2018-02-14T03:25:18.432Z,1009.39
2018-02-14T03:27:11.381Z,1009.35
2018-02-14T03:28:11.385Z,1009.40
2018-02-14T03:30:04.350Z,1009.39
2018-02-14T03:31:05.334Z,1009.40
2018-02-14T03:32:57.283Z,1009.41
2018-02-14T03:33:57.296Z,1009.41
2018-02-14T03:35:50.275Z,1009.41
2018-02-14T03:36:50.261Z,1009.44
2018-02-14T03:38:43.192Z,1009.48
2018-02-14T03:39:43.202Z,1009.48
2018-02-14T03:41:36.189Z,1009.50
2018-02-14T03:42:36.161Z,1009.49
2018-02-14T03:44:29.121Z,1009.50
2018-02-14T03:45:29.112Z,1009.54
2018-02-14T03:47:22.057Z,1009.54
2018-02-14T03:48:22.066Z,1009.52
2018-02-14T03:50:15.029Z,1009.57
2018-02-14T03:51:15.021Z,1009.53
2018-02-14T03:53:07.965Z,1009.56
2018-02-14T03:54:07.977Z,1009.53
2018-02-14T03:56:00.938Z,1009.59
2018-02-14T03:57:00.931Z,1009.57
2018-02-14T03:58:53.871Z,1009.57
2018-02-14T03:59:53.882Z,1009.58
2018-02-14T04:01:46.845Z,1009.56
2018-02-14T04:02:46.840Z,1009.63
2018-02-14T04:04:39.800Z,1009.62
2018-02-14T04:05:39.791Z,1009.60
2018-02-14T04:07:32.733Z,1009.65
2018-02-14T04:08:32.745Z,1009.63
2018-02-14T04:10:25.708Z,1009.69
2018-02-14T04:11:25.699Z,1009.71
2018-02-14T04:13:18.642Z,1009.69
2018-02-14T04:14:18.652Z,1009.74
2018-02-14T04:16:11.617Z,1009.78
2018-02-14T04:17:11.607Z,1009.79
2018-02-14T04:19:04.549Z,1009.83
2018-02-14T04:20:04.562Z,1009.84
2018-02-14T04:21:57.541Z,1009.90
2018-02-14T04:22:57.533Z,1009.92
2018-02-14T04:24:50.477Z,1009.97
2018-02-14T04:25:50.468Z,1010.01
2018-02-14T04:27:43.415Z,1009.99
2018-02-14T04:28:43.428Z,1010.00
2018-02-14T04:30:36.386Z,1010.01
2018-02-14T04:31:36.377Z,1010.00
2018-02-14T04:33:29.324Z,1010.01
2018-02-14T04:34:29.331Z,1010.01
2018-02-14T04:36:22.294Z,1009.96
2018-02-14T04:37:22.286Z,1009.99
2018-02-14T04:39:15.230Z,1010.04
2018-02-14T04:40:15.239Z,1010.04
2018-02-14T04:42:08.203Z,1010.08
2018-02-14T04:43:08.198Z,1010.07
2018-02-14T04:45:01.156Z,1010.12
2018-02-14T04:46:01.147Z,1010.12
2018-02-14T04:47:54.096Z,1010.17
2018-02-14T04:48:54.107Z,1010.21
2018-02-14T04:50:47.065Z,1010.24
2018-02-14T04:51:47.061Z,1010.23
2018-02-14T04:53:40.005Z,1010.26
2018-02-14T04:54:40.013Z,1010.25
2018-02-14T04:56:32.973Z,1010.27
2018-02-14T04:57:32.964Z,1010.26
2018-02-14T04:59:25.913Z,1010.34
2018-02-14T05:00:25.924Z,1010.30
2018-02-14T05:02:18.883Z,1010.32
2018-02-14T05:03:18.877Z,1010.38
2018-02-14T05:05:11.838Z,1010.42
2018-02-14T05:06:11.871Z,1010.41
2018-02-14T05:08:04.798Z,1010.40
2018-02-14T05:09:04.793Z,1010.43
2018-02-14T05:10:57.745Z,1010.44
2018-02-14T05:11:57.737Z,1010.42
2018-02-14T05:13:50.679Z,1010.43
2018-02-14T05:14:50.693Z,1010.45
2018-02-14T05:16:43.652Z,1010.46
2018-02-14T05:17:43.644Z,1010.45
2018-02-14T05:19:36.587Z,1010.47
2018-02-14T05:20:36.618Z,1010.49
2018-02-14T05:22:29.563Z,1010.49
2018-02-14T05:23:29.558Z,1010.50
2018-02-14T05:25:22.516Z,1010.50
2018-02-14T05:26:22.506Z,1010.50
2018-02-14T05:28:15.468Z,1010.52
2018-02-14T05:29:15.461Z,1010.56
2018-02-14T05:31:08.423Z,1010.52
2018-02-14T05:32:08.456Z,1010.58
2018-02-14T05:34:01.358Z,1010.55
2018-02-14T05:35:01.382Z,1010.54
2018-02-14T05:36:54.331Z,1010.60
2018-02-14T05:37:54.326Z,1010.56
2018-02-14T05:39:47.275Z,1010.57
2018-02-14T05:40:47.281Z,1010.60
2018-02-14T05:42:40.243Z,1010.57
2018-02-14T05:43:40.234Z,1010.59
2018-02-14T05:45:33.198Z,1010.65
2018-02-14T05:46:33.191Z,1010.64
2018-02-14T05:48:26.645Z,1010.66
2018-02-14T05:49:26.654Z,1010.65
2018-02-14T05:51:19.617Z,1010.69
2018-02-14T05:52:19.606Z,1010.70
2018-02-14T05:54:12.550Z,1010.70
2018-02-14T05:55:12.560Z,1010.67
2018-02-14T05:57:05.522Z,1010.68
2018-02-14T05:58:05.520Z,1010.68
2018-02-14T05:59:58.475Z,1010.68
2018-02-14T06:00:58.490Z,1010.71
2018-02-14T06:02:51.474Z,1010.68
2018-02-14T06:03:51.427Z,1010.67
2018-02-14T06:05:44.387Z,1010.68
2018-02-14T06:06:44.380Z,1010.68
2018-02-14T06:08:37.320Z,1010.72
2018-02-14T06:09:37.335Z,1010.76
2018-02-14T06:11:30.296Z,1010.78
2018-02-14T06:12:30.288Z,1010.77
2018-02-14T06:14:23.837Z,1010.79
2018-02-14T06:15:23.771Z,1010.80
2018-02-14T06:17:16.713Z,1010.81
2018-02-14T06:18:16.708Z,1010.81
2018-02-14T06:20:09.648Z,1010.81
2018-02-14T06:21:09.659Z,1010.85
2018-02-14T06:23:02.622Z,1010.83
2018-02-14T06:24:02.613Z,1010.83
2018-02-14T06:25:55.577Z,1010.88
2018-02-14T06:26:55.571Z,1010.85
2018-02-14T06:28:48.513Z,1010.88
2018-02-14T06:29:48.522Z,1010.87
2018-02-14T06:31:41.485Z,1010.86
2018-02-14T06:32:41.478Z,1010.84
2018-02-14T06:34:34.436Z,1010.83
2018-02-14T06:35:34.452Z,1010.86
2018-02-14T06:37:27.395Z,1010.88
2018-02-14T06:38:27.387Z,1010.84
2018-02-14T06:40:20.337Z,1010.84
2018-02-14T06:41:20.341Z,1010.82
2018-02-14T06:43:13.305Z,1010.87
2018-02-14T06:44:13.296Z,1010.86
2018-02-14T06:46:06.256Z,1010.74
2018-02-14T06:47:06.250Z,1010.80
2018-02-14T06:48:59.194Z,1010.77
2018-02-14T06:49:59.204Z,1010.80
2018-02-14T06:51:52.164Z,1010.82
2018-02-14T06:52:52.158Z,1010.79
2018-02-14T06:54:45.100Z,1010.86
2018-02-14T06:55:45.113Z,1010.89
2018-02-14T06:57:38.096Z,1010.88
2018-02-14T06:58:38.068Z,1010.90
2018-02-14T07:00:31.012Z,1010.89
2018-02-14T07:01:31.021Z,1010.92
2018-02-14T07:03:23.988Z,1010.96
2018-02-14T07:04:23.975Z,1011.00
2018-02-14T07:06:16.938Z,1011.02
2018-02-14T07:07:16.929Z,1011.04
2018-02-14T07:09:09.873Z,1011.04
2018-02-14T07:10:09.886Z,1011.03
2018-02-14T07:12:02.846Z,1010.97
2018-02-14T07:13:02.838Z,1010.97
2018-02-14T07:14:56.291Z,1010.95
2018-02-14T07:15:56.307Z,1010.94
2018-02-14T07:17:49.261Z,1010.90
2018-02-14T07:18:49.257Z,1010.94
2018-02-14T07:20:42.202Z,1010.93
2018-02-14T07:21:42.238Z,1010.94
2018-02-14T07:23:35.172Z,1010.96
2018-02-14T07:24:35.163Z,1011.00
2018-02-14T07:26:28.127Z,1011.04
2018-02-14T07:27:28.120Z,1011.01
2018-02-14T07:29:21.061Z,1011.02
2018-02-14T07:30:21.074Z,1011.07
2018-02-14T07:32:14.043Z,1011.05
2018-02-14T07:33:14.030Z,1011.08
2018-02-14T07:35:06.970Z,1011.12
2018-02-14T07:36:06.981Z,1011.09
2018-02-14T07:37:59.945Z,1011.09
2018-02-14T07:38:59.937Z,1011.13
2018-02-14T07:40:52.879Z,1011.15
2018-02-14T07:41:52.892Z,1011.16
2018-02-14T07:43:45.851Z,1011.16
2018-02-14T07:44:45.844Z,1011.16
2018-02-14T07:46:38.805Z,1011.15
2018-02-14T07:47:38.800Z,1011.17
2018-02-14T07:49:31.739Z,1011.17
2018-02-14T07:50:31.752Z,1011.14
2018-02-14T07:52:24.715Z,1011.21
2018-02-14T07:53:24.709Z,1011.24
2018-02-14T07:55:17.657Z,1011.30
2018-02-14T07:56:17.664Z,1011.32
2018-02-14T07:58:10.623Z,1011.37
2018-02-14T07:59:10.616Z,1011.45
2018-02-14T08:01:03.559Z,1011.47
2018-02-14T08:02:03.569Z,1011.50
2018-02-14T08:03:56.535Z,1011.53
2018-02-14T08:04:56.526Z,1011.57
2018-02-14T08:06:49.486Z,1011.60
2018-02-14T08:07:49.482Z,1011.60
2018-02-14T08:09:42.434Z,1011.57
2018-02-14T08:10:42.434Z,1011.61
2018-02-14T08:12:35.394Z,1011.59
2018-02-14T08:13:35.388Z,1011.66
2018-02-14T08:15:28.331Z,1011.66
2018-02-14T08:16:28.340Z,1011.72
2018-02-14T08:18:21.301Z,1011.73
2018-02-14T08:19:21.296Z,1011.72
2018-02-14T08:21:14.244Z,1011.77
2018-02-14T08:22:14.249Z,1011.80
2018-02-14T08:24:07.211Z,1011.81
2018-02-14T08:25:07.203Z,1011.82
2018-02-14T08:27:00.166Z,1011.85
2018-02-14T08:28:00.183Z,1011.85
2018-02-14T08:29:53.104Z,1011.86
2018-02-14T08:30:53.116Z,1011.90
2018-02-14T08:32:46.076Z,1011.94
2018-02-14T08:33:46.070Z,1011.92
2018-02-14T08:35:39.008Z,1011.89
2018-02-14T08:36:39.023Z,1011.89
2018-02-14T08:38:31.983Z,1011.86
2018-02-14T08:39:31.997Z,1011.87
2018-02-14T08:41:24.920Z,1011.85
2018-02-14T08:42:24.931Z,1011.83
2018-02-14T08:44:17.891Z,1011.88
2018-02-14T08:45:17.892Z,1011.90
2018-02-14T08:47:11.870Z,1011.95
2018-02-14T08:48:11.864Z,1012.01
2018-02-14T08:50:04.813Z,1012.02
2018-02-14T08:51:04.817Z,1012.01
2018-02-14T08:52:57.778Z,1011.98
2018-02-14T08:53:57.772Z,1012.00
2018-02-14T08:55:50.722Z,1012.03
2018-02-14T08:56:50.756Z,1012.00
2018-02-14T08:58:43.685Z,1011.94
2018-02-14T08:59:43.678Z,1011.99
2018-02-14T09:01:36.620Z,1011.98
2018-02-14T09:02:36.634Z,1011.99
2018-02-14T09:04:29.592Z,1011.98
2018-02-14T09:05:29.587Z,1011.99
2018-02-14T09:07:22.548Z,1012.00
2018-02-14T09:08:22.541Z,1011.98
2018-02-14T09:10:15.482Z,1012.02
2018-02-14T09:11:15.495Z,1012.06
2018-02-14T09:13:08.456Z,1012.02
2018-02-14T09:14:08.450Z,1012.03
2018-02-14T09:16:01.394Z,1012.09
2018-02-14T09:17:01.404Z,1012.13
2018-02-14T09:18:54.364Z,1012.14
2018-02-14T09:19:54.360Z,1012.15
2018-02-14T09:21:47.306Z,1012.21
2018-02-14T09:22:47.315Z,1012.17
2018-02-14T09:24:40.281Z,1012.14
2018-02-14T09:25:40.266Z,1012.17
2018-02-14T09:27:33.228Z,1012.17
2018-02-14T09:28:33.224Z,1012.14
2018-02-14T09:30:26.164Z,1012.10
2018-02-14T09:31:26.176Z,1012.10
2018-02-14T09:33:19.134Z,1012.08
2018-02-14T09:34:19.137Z,1012.07
2018-02-14T09:36:12.587Z,1012.07
2018-02-14T09:37:12.601Z,1012.09
2018-02-14T09:39:05.555Z,1012.09
2018-02-14T09:40:05.550Z,1012.04
2018-02-14T09:41:58.493Z,1012.06
2018-02-14T09:42:58.506Z,1012.06
2018-02-14T09:44:51.464Z,1012.04
2018-02-14T09:45:51.461Z,1012.00
2018-02-14T09:47:44.418Z,1012.02
2018-02-14T09:48:44.415Z,1012.01
2018-02-14T09:50:37.354Z,1012.05
2018-02-14T09:51:37.368Z,1012.05
2018-02-14T09:53:30.326Z,1012.06
2018-02-14T09:54:30.321Z,1012.06
2018-02-14T09:56:23.276Z,1012.09
2018-02-14T09:57:23.276Z,1012.07
2018-02-14T09:59:16.238Z,1012.06
2018-02-14T10:00:16.277Z,1012.07
2018-02-14T10:02:09.198Z,1012.04
2018-02-14T10:03:09.208Z,1012.07
2018-02-14T10:05:02.143Z,1012.04
2018-02-14T10:06:02.140Z,1011.98
2018-02-14T10:07:55.611Z,1012.02
2018-02-14T10:08:55.605Z,1012.03
2018-02-14T10:10:48.551Z,1011.94
2018-02-14T10:11:48.564Z,1011.99
2018-02-14T10:13:41.519Z,1011.96
2018-02-14T10:14:41.521Z,1011.96
2018-02-14T10:16:34.966Z,1012.06
2018-02-14T10:17:34.991Z,1012.05
2018-02-14T10:19:27.939Z,1012.10
2018-02-14T10:20:27.933Z,1012.14
2018-02-14T10:22:20.873Z,1012.15
2018-02-14T10:23:20.891Z,1012.14
2018-02-14T10:25:13.845Z,1012.11
2018-02-14T10:26:13.854Z,1012.18
2018-02-14T10:28:06.800Z,1012.09
2018-02-14T10:29:06.799Z,1012.13
2018-02-14T10:30:59.738Z,1012.09
2018-02-14T10:31:59.754Z,1012.13
2018-02-14T10:33:52.709Z,1012.05
2018-02-14T10:34:52.706Z,1012.05
2018-02-14T10:36:46.156Z,1012.06
2018-02-14T10:37:46.170Z,1012.00
2018-02-14T10:39:39.128Z,1011.97
2018-02-14T10:40:39.125Z,1012.03
2018-02-14T10:42:32.065Z,1011.99
2018-02-14T10:43:32.080Z,1012.02
2018-02-14T10:45:25.037Z,1012.04
2018-02-14T10:46:25.032Z,1012.05
2018-02-14T10:48:17.996Z,1012.14
2018-02-14T10:49:18.025Z,1012.14
2018-02-14T10:51:10.927Z,1012.14
2018-02-14T10:52:10.942Z,1012.14
2018-02-14T10:54:03.919Z,1012.10
2018-02-14T10:55:03.896Z,1012.09
2018-02-14T10:56:56.836Z,1011.99
2018-02-14T10:57:56.849Z,1012.01
2018-02-14T10:59:49.812Z,1011.96
2018-02-14T11:00:49.805Z,1011.97
2018-02-14T11:02:42.755Z,1011.96
2018-02-14T11:03:42.761Z,1012.02
2018-02-14T11:05:35.718Z,1012.02
2018-02-14T11:06:35.710Z,1012.03
2018-02-14T11:08:28.671Z,1012.02
2018-02-14T11:09:28.667Z,1012.07
2018-02-14T11:11:21.607Z,1012.09
2018-02-14T11:12:21.620Z,1012.07
2018-02-14T11:14:14.599Z,1012.09
2018-02-14T11:15:14.612Z,1012.10
2018-02-14T11:17:07.514Z,1012.12
2018-02-14T11:18:07.530Z,1012.09
2018-02-14T11:20:00.489Z,1012.08
2018-02-14T11:21:00.485Z,1012.06
2018-02-14T11:22:53.429Z,1012.07
2018-02-14T11:23:53.440Z,1012.05
2018-02-14T11:25:46.396Z,1012.05
2018-02-14T11:26:46.392Z,1012.07
2018-02-14T11:28:39.350Z,1012.02
2018-02-14T11:29:39.346Z,1012.07
2018-02-14T11:31:32.287Z,1012.07
2018-02-14T11:32:32.301Z,1012.07
2018-02-14T11:34:25.268Z,1012.08
2018-02-14T11:35:25.253Z,1012.07
2018-02-14T11:37:18.201Z,1012.07
2018-02-14T11:38:18.209Z,1012.12
2018-02-14T11:40:11.166Z,1012.11
2018-02-14T11:41:11.162Z,1012.08
2018-02-14T11:43:04.105Z,1012.03
2018-02-14T11:44:04.117Z,1012.09
2018-02-14T11:45:57.075Z,1012.05
2018-02-14T11:46:57.072Z,1012.05
2018-02-14T11:48:50.033Z,1012.06
2018-02-14T11:49:50.028Z,1012.08
2018-02-14T11:51:42.967Z,1012.07
2018-02-14T11:52:42.983Z,1012.09
2018-02-14T11:54:35.938Z,1012.06
2018-02-14T11:55:35.933Z,1012.09
2018-02-14T11:57:28.874Z,1012.07
2018-02-14T11:58:28.887Z,1012.06
2018-02-14T12:00:21.846Z,1012.08
2018-02-14T12:01:21.842Z,1012.05
2018-02-14T12:03:14.783Z,1012.10
2018-02-14T12:04:14.800Z,1012.00
2018-02-14T12:06:07.779Z,1012.00
2018-02-14T12:07:07.752Z,1012.01
2018-02-14T12:09:00.709Z,1011.98
2018-02-14T12:10:00.706Z,1011.96
2018-02-14T12:11:53.658Z,1011.96
2018-02-14T12:12:53.663Z,1011.95
2018-02-14T12:14:46.650Z,1011.97
2018-02-14T12:15:46.616Z,1012.02
2018-02-14T12:17:39.553Z,1012.05
2018-02-14T12:18:39.567Z,1012.00
2018-02-14T12:20:32.525Z,1011.94
2018-02-14T12:21:32.521Z,1011.98
2018-02-14T12:23:25.461Z,1011.99
2018-02-14T12:24:25.475Z,1012.01
2018-02-14T12:26:18.448Z,1011.93
2018-02-14T12:27:18.444Z,1011.94
2018-02-14T12:29:11.398Z,1011.94
2018-02-14T12:30:11.483Z,1011.94
2018-02-14T12:32:04.341Z,1011.95
2018-02-14T12:33:04.356Z,1011.95
2018-02-14T12:34:57.300Z,1011.89
2018-02-14T12:35:57.293Z,1011.97
2018-02-14T12:37:50.232Z,1011.96
2018-02-14T12:38:50.247Z,1011.92
2018-02-14T12:40:43.204Z,1011.91
2018-02-14T12:41:43.246Z,1011.90
2018-02-14T12:43:36.141Z,1011.89
2018-02-14T12:44:36.154Z,1011.91
2018-02-14T12:46:29.115Z,1011.88
2018-02-14T12:47:29.113Z,1011.87
2018-02-14T12:49:22.073Z,1011.86
2018-02-14T12:50:22.067Z,1011.78
2018-02-14T12:52:15.014Z,1011.80
2018-02-14T12:53:15.021Z,1011.75
2018-02-14T12:55:07.976Z,1011.78
2018-02-14T12:56:07.971Z,1011.76
2018-02-14T12:58:00.911Z,1011.71
2018-02-14T12:59:00.928Z,1011.71
2018-02-14T13:00:53.885Z,1011.72
2018-02-14T13:01:53.880Z,1011.74
2018-02-14T13:03:46.820Z,1011.74
2018-02-14T13:04:46.834Z,1011.76
2018-02-14T13:06:39.792Z,1011.74
2018-02-14T13:07:39.789Z,1011.67
2018-02-14T13:09:32.746Z,1011.64
2018-02-14T13:10:32.742Z,1011.68
2018-02-14T13:12:25.685Z,1011.60
2018-02-14T13:13:25.711Z,1011.65
2018-02-14T13:15:18.657Z,1011.65
2018-02-14T13:16:18.652Z,1011.59
2018-02-14T13:18:11.593Z,1011.55
2018-02-14T13:19:11.604Z,1011.54
2018-02-14T13:21:04.568Z,1011.55
2018-02-14T13:22:04.576Z,1011.55
2018-02-14T13:23:59.043Z,1011.59
2018-02-14T13:24:59.059Z,1011.61
2018-02-14T13:26:52.009Z,1011.60
2018-02-14T13:27:52.003Z,1011.58
2018-02-14T13:29:44.963Z,1011.57
2018-02-14T13:30:44.958Z,1011.58
2018-02-14T13:32:37.900Z,1011.55
2018-02-14T13:33:37.914Z,1011.55
2018-02-14T13:35:30.965Z,1011.51
2018-02-14T13:36:30.965Z,1011.56
2018-02-14T13:38:23.819Z,1011.56
2018-02-14T13:39:23.826Z,1011.56
2018-02-14T13:41:26.740Z,1011.56
2018-02-14T13:42:26.889Z,1011.53
2018-02-14T13:44:19.730Z,1011.55
2018-02-14T13:45:19.712Z,1011.56
2018-02-14T13:47:12.589Z,1011.56
2018-02-14T13:48:12.614Z,1011.52
2018-02-14T13:50:05.539Z,1011.49
2018-02-14T13:51:05.501Z,1011.53
2018-02-14T13:52:58.389Z,1011.53
2018-02-14T13:53:58.407Z,1011.52
2018-02-14T13:55:51.317Z,1011.47
2018-02-14T13:56:51.313Z,1011.50
2018-02-14T13:58:44.205Z,1011.47
2018-02-14T13:59:44.221Z,1011.46
2018-02-14T14:01:37.195Z,1011.47
2018-02-14T14:02:37.227Z,1011.47
2018-02-14T14:04:30.043Z,1011.50
2018-02-14T14:05:30.076Z,1011.48
2018-02-14T14:07:23.503Z,1011.52
2018-02-14T14:08:23.455Z,1011.44
2018-02-14T14:10:16.411Z,1011.47
2018-02-14T14:11:16.393Z,1011.45
2018-02-14T14:13:09.288Z,1011.44
2018-02-14T14:14:09.300Z,1011.43
2018-02-14T14:16:02.216Z,1011.41
2018-02-14T14:17:02.223Z,1011.41
2018-02-14T14:18:55.103Z,1011.46
2018-02-14T14:19:55.118Z,1011.52
2018-02-14T14:21:48.039Z,1011.52
2018-02-14T14:22:48.037Z,1011.56
2018-02-14T14:24:40.928Z,1011.52
2018-02-14T14:25:40.941Z,1011.56
2018-02-14T14:29:05.446Z,1011.56
2018-02-14T14:30:05.453Z,1011.51
2018-02-14T14:31:58.357Z,1011.55
2018-02-14T14:32:58.354Z,1011.57
2018-02-14T14:34:51.262Z,1011.61
2018-02-14T14:35:51.320Z,1011.64
2018-02-14T14:37:44.180Z,1011.65
2018-02-14T14:38:44.175Z,1011.66
2018-02-14T14:40:37.088Z,1011.65
2018-02-14T14:41:37.085Z,1011.68
2018-02-14T14:43:29.976Z,1011.64
2018-02-14T14:44:29.993Z,1011.71
2018-02-14T14:46:22.905Z,1011.69
2018-02-14T14:47:22.901Z,1011.67
2018-02-14T14:49:15.798Z,1011.69
2018-02-14T14:50:15.821Z,1011.65
2018-02-14T14:52:08.726Z,1011.69
2018-02-14T14:53:08.742Z,1011.65
2018-02-14T14:55:01.641Z,1011.65
2018-02-14T14:56:01.631Z,1011.64
2018-02-14T14:57:54.546Z,1011.63
2018-02-14T14:58:54.539Z,1011.63
2018-02-14T15:00:47.630Z,1011.66
2018-02-14T15:01:47.625Z,1011.62
2018-02-14T15:03:40.521Z,1011.61
2018-02-14T15:04:40.536Z,1011.60
2018-02-14T15:06:33.448Z,1011.59
2018-02-14T15:07:33.444Z,1011.60
2018-02-14T15:09:26.336Z,1011.54
2018-02-14T15:10:26.374Z,1011.60
2018-02-14T15:12:19.265Z,1011.54
2018-02-14T15:13:19.318Z,1011.56
2018-02-14T15:15:12.154Z,1011.56
2018-02-14T15:16:12.169Z,1011.52
2018-02-14T15:18:05.083Z,1011.55
2018-02-14T15:19:05.081Z,1011.52
2018-02-14T15:20:57.992Z,1011.56
2018-02-14T15:21:57.989Z,1011.57
2018-02-14T15:23:50.883Z,1011.58
2018-02-14T15:24:50.897Z,1011.53
2018-02-14T15:26:43.807Z,1011.54
2018-02-14T15:27:43.806Z,1011.55
2018-02-14T15:29:36.713Z,1011.54
2018-02-14T15:30:36.724Z,1011.58
2018-02-14T15:32:29.626Z,1011.55
2018-02-14T15:33:29.623Z,1011.47
2018-02-14T15:35:22.517Z,1011.58
2018-02-14T15:36:22.539Z,1011.58
2018-02-14T15:38:15.439Z,1011.56
2018-02-14T15:39:15.438Z,1011.57
2018-02-14T15:41:08.355Z,1011.60
2018-02-14T15:42:08.450Z,1011.63
2018-02-14T15:44:01.241Z,1011.66
2018-02-14T15:45:01.253Z,1011.67
2018-02-14T15:46:54.169Z,1011.69
2018-02-14T15:47:54.167Z,1011.63
2018-02-14T15:49:47.068Z,1011.66
2018-02-14T15:50:47.074Z,1011.69
2018-02-14T15:52:39.990Z,1011.68
2018-02-14T15:53:39.984Z,1011.63
2018-02-14T15:55:32.923Z,1011.59
2018-02-14T15:56:32.890Z,1011.60
2018-02-14T15:58:25.800Z,1011.64
2018-02-14T15:59:25.797Z,1011.64
2018-02-14T16:01:18.706Z,1011.71
2018-02-14T16:02:18.701Z,1011.71
2018-02-14T16:04:11.593Z,1011.77
2018-02-14T16:05:11.608Z,1011.85
2018-02-14T16:07:04.523Z,1011.84
2018-02-14T16:08:04.517Z,1011.85
2018-02-14T16:09:57.407Z,1011.87
2018-02-14T16:10:57.421Z,1011.88
2018-02-14T16:12:50.338Z,1011.95
2018-02-14T16:13:50.341Z,1011.95
2018-02-14T16:15:43.232Z,1011.97
2018-02-14T16:16:43.235Z,1011.94
2018-02-14T16:18:36.149Z,1011.94
2018-02-14T16:19:36.142Z,1011.97
2018-02-14T16:21:29.218Z,1012.01
2018-02-14T16:22:29.210Z,1012.03
2018-02-14T16:24:22.105Z,1012.01
2018-02-14T16:25:22.116Z,1012.03
2018-02-14T16:27:15.044Z,1012.04
2018-02-14T16:28:15.020Z,1012.04
2018-02-14T16:30:07.928Z,1012.01
2018-02-14T16:31:07.937Z,1012.07
2018-02-14T16:33:00.843Z,1012.08
2018-02-14T16:34:00.838Z,1012.10
2018-02-14T16:35:53.729Z,1012.09
2018-02-14T16:36:53.742Z,1012.09
2018-02-14T16:38:46.651Z,1012.05
2018-02-14T16:39:46.650Z,1012.08
2018-02-14T16:41:39.558Z,1012.05
2018-02-14T16:42:39.549Z,1012.08
2018-02-14T16:44:32.441Z,1012.06
2018-02-14T16:45:32.497Z,1012.02
2018-02-14T16:47:25.363Z,1011.99
2018-02-14T16:48:25.358Z,1012.04
2018-02-14T16:50:18.253Z,1012.01
2018-02-14T16:51:18.265Z,1012.02
2018-02-14T16:53:11.170Z,1012.05
2018-02-14T16:54:11.164Z,1011.99
2018-02-14T16:56:05.130Z,1012.01
2018-02-14T16:57:05.078Z,1012.05
2018-02-14T16:58:58.066Z,1012.01
2018-02-14T16:59:57.986Z,1012.00
2018-02-14T17:01:50.895Z,1012.04
2018-02-14T17:02:50.890Z,1012.00
2018-02-14T17:04:43.782Z,1012.06
2018-02-14T17:05:43.812Z,1012.04
2018-02-14T17:07:36.890Z,1012.07
2018-02-14T17:08:36.885Z,1011.99
2018-02-14T17:10:29.794Z,1012.06
2018-02-14T17:11:29.790Z,1012.11
2018-02-14T17:13:22.907Z,1012.05
2018-02-14T17:14:22.898Z,1012.08
2018-02-14T17:16:15.786Z,1012.06
2018-02-14T17:17:15.799Z,1012.07
2018-02-14T17:19:08.715Z,1012.05
2018-02-14T17:20:08.709Z,1012.00
2018-02-14T17:22:01.611Z,1011.95
2018-02-14T17:23:01.614Z,1011.94
2018-02-14T17:24:54.552Z,1011.90
2018-02-14T17:25:54.508Z,1011.89
2018-02-14T17:27:47.453Z,1011.92